Flight Track Log - Related Links

Times and Time Zones

All times are in EDT time to prevent confusion due to time zone crossing. See the N9012F flight status page for this flight to view local times or setup timezone preferences in your user account.

Time Position Orientation Groundspeed Altitude Reporting Facility
EDT Latitude Longitude Course Direction KTS MPH feet Rate Location/Type
Fri 10:49:54 AM 40.3533 -76.8856 North 132 152 5,500  Level New York Center
Fri 10:50:00 AM 40.3849 -76.5651 37° Northeast  Level FlightAware Approximate
Fri 10:50:53 AM 40.3886 -76.8861 359° North 137 158 6,300  Level New York Center
Fri 10:51:00 AM 40.4184 -76.5317 37° Northeast  Level FlightAware Approximate
Fri 10:51:53 AM 40.4222 -76.8836 North 137 158 7,100  Level New York Center
Fri 10:52:00 AM 40.4417 -76.4916 37° Northeast  Level FlightAware Approximate
Fri 10:52:53 AM 40.4597 -76.8814 North 132 152 9,000  Level New York Center
Fri 10:53:00 AM 40.4785 -76.4715 37° Northeast  Level FlightAware Approximate
Fri 10:53:53 AM 40.4994 -76.8767 North 132 152 8,000  Level New York Center
Fri 10:54:00 AM 40.5120 -76.4380 37° Northeast  Level FlightAware Approximate
Fri 10:54:54 AM 40.5403 -76.8531 24° Northeast 146 168 8,000  Level New York Center
Fri 10:55:51 AM 40.5756 -76.8153 39° Northeast 153 176 8,400 454 Climbing New York Center
Fri 10:56:53 AM 40.6044 -76.7850 39° Northeast 165 190 8,900 492 Climbing New York Center
Fri 10:57:53 AM 40.6400 -76.7414 43° Northeast 165 190 9,400 496 Climbing New York Center
Fri 10:58:54 AM 40.6714 -76.6950 48° Northeast 160 184 9,900 504 Climbing New York Center
Fri 10:59:52 AM 40.7006 -76.6564 45° Northeast 160 184 10,400 504 Climbing New York Center
Fri 11:00:53 AM 40.7319 -76.6069 50° Northeast 160 184 10,900 295 Climbing New York Center
Fri 11:01:54 AM 40.7636 -76.5578 50° Northeast 160 184 11,000 50 Climbing New York Center
Fri 11:02:52 AM 40.7950 -76.5111 48° Northeast 178 205 11,000  Level New York Center
Fri 11:03:52 AM 40.8331 -76.4567 47° Northeast 178 205 11,000  Level New York Center
Fri 11:04:54 AM 40.8647 -76.4072 50° Northeast 173 199 11,000  Level New York Center
Fri 11:05:54 AM 40.8961 -76.3575 50° Northeast 178 205 11,000  Level New York Center
Fri 11:06:51 AM 40.9272 -76.3161 45° Northeast 178 205 11,000  Level New York Center
Fri 11:07:52 AM 40.9589 -76.2664 50° Northeast 178 205 11,000  Level New York Center
Fri 11:08:54 AM 40.9967 -76.2117 48° Northeast 172 198 11,000  Level New York Center
Fri 11:09:52 AM 41.0303 -76.1594 50° Northeast 172 198 11,000  Level New York Center
Fri 11:10:52 AM 41.0619 -76.1097 50° Northeast 172 198 11,000  Level New York Center
Fri 11:11:53 AM 41.0931 -76.0653 47° Northeast 172 198 11,000  Level New York Center
Fri 11:12:52 AM 41.1264 -76.0156 48° Northeast 172 198 11,000  Level New York Center
Fri 11:13:52 AM 41.1644 -75.9578 49° Northeast 177 204 11,000  Level New York Center
Fri 11:14:52 AM 41.1978 -75.9081 48° Northeast 172 198 11,000  Level New York Center
Fri 11:15:52 AM 41.2314 -75.8556 50° Northeast 177 204 11,000  Level New York Center
Fri 11:16:53 AM 41.2625 -75.8108 47° Northeast 177 204 11,000  Level New York Center
Fri 11:17:52 AM 41.2961 -75.7553 51° Northeast 177 204 11,000  Level New York Center
Fri 11:18:53 AM 41.3317 -75.7028 48° Northeast 177 204 11,000  Level New York Center
Fri 11:19:54 AM 41.3647 -75.6528 49° Northeast 177 204 11,000  Level New York Center
Fri 11:21:52 AM 41.4344 -75.5469 49° Northeast 185 213 11,000  Level Boston Center
Fri 11:22:52 AM 41.4692 -75.4933 49° Northeast 185 213 11,000  Level Boston Center
Fri 11:24:04 AM 41.5144 -75.4344 44° Northeast 185 213 11,000  Level Boston Center
Fri 11:25:04 AM 41.5514 -75.3861 44° Northeast 185 213 11,000  Level Boston Center
Fri 11:26:16 AM 41.5881 -75.3381 44° Northeast 185 213 11,000 45 Level Boston Center
Fri 11:27:16 AM 41.6331 -75.2817 43° Northeast 185 213 11,100  Climbing Boston Center
Fri 11:28:16 AM 41.6675 -75.2358 45° Northeast 180 207 11,000  Descending Boston Center
Fri 11:29:16 AM 41.7042 -75.1903 43° Northeast 180 207 11,100 50 Climbing Boston Center
Fri 11:30:16 AM 41.7408 -75.1444 43° Northeast 180 207 11,100  Level Boston Center
Fri 11:31:16 AM 41.7836 -75.0906 43° Northeast 175 201 11,100  Level Boston Center
Fri 11:32:16 AM 41.8161 -75.0447 46° Northeast 175 201 11,100  Level Boston Center
Fri 11:33:16 AM 41.8458 -75.0125 39° Northeast 174 200 11,100 -50 Level Boston Center
Fri 11:34:16 AM 41.8947 -74.9697 33° Northeast 174 200 11,000 -250 Descending Boston Center
Fri 11:35:16 AM 41.9375 -74.9297 35° Northeast 174 200 10,600 -455 Descending Boston Center
Fri 11:36:28 AM 41.9822 -74.8839 37° Northeast 193 222 10,000 -500 Descending Boston Center
Fri 11:37:28 AM 42.0311 -74.8411 33° Northeast 193 222 9,500 -500 Descending Boston Center
Fri 11:38:28 AM 42.0714 -74.8064 33° Northeast 193 222 9,000 -250 Descending Boston Center
Fri 11:39:28 AM 42.1161 -74.7661 34° Northeast 182 209 9,000  Level Boston Center
Fri 11:40:28 AM 42.1564 -74.7283 35° Northeast 176 203 9,000  Level Boston Center
Fri 11:41:28 AM 42.1969 -74.6850 38° Northeast 176 203 9,000 78 Level Boston Center
Fri 11:41:45 AM 42.2053 -74.6797 25° Northeast 174 200 9,100  Climbing Boston Center
Fri 11:42:28 AM 42.2350 -74.6497 37° Northeast 176 203 9,000 -82 Descending Boston Center
Fri 11:42:58 AM 42.2542 -74.6308 36° Northeast 177 204 9,000  Level Boston Center
Fri 11:43:28 AM 42.2753 -74.6147 29° Northeast 176 203 9,000  Level Boston Center
Fri 11:43:59 AM 42.2944 -74.5931 40° Northeast 177 204 9,000  Level Boston Center
Fri 11:44:28 AM 42.3156 -74.5769 29° Northeast 171 197 9,000  Level Boston Center
Fri 11:44:59 AM 42.3369 -74.5550 37° Northeast 177 204 9,000  Level Boston Center
Fri 11:45:28 AM 42.3561 -74.5306 43° Northeast 183 211 9,000  Level Boston Center
Fri 11:46:00 AM 42.3794 -74.5114 31° Northeast 177 204 9,000  Level Boston Center
Fri 11:46:28 AM 42.3944 -74.4953 38° Northeast 178 205 9,000  Level Boston Center
Fri 11:47:01 AM 42.4175 -74.4733 35° Northeast 178 205 9,000  Level Boston Center
Fri 11:47:28 AM 42.4367 -74.4544 36° Northeast 172 198 9,000  Level Boston Center
Fri 11:48:01 AM 42.4600 -74.4353 31° Northeast 179 206 9,000 -100 Level Boston Center
Fri 11:48:28 AM 42.4769 -74.4133 44° Northeast 172 198 8,900 -393 Descending Boston Center
Fri 11:49:02 AM 42.5025 -74.3944 29° Northeast 184 212 8,600 -500 Descending Boston Center
Fri 11:49:28 AM 42.5194 -74.3753 40° Northeast 177 204 8,400 -492 Descending Boston Center
Fri 11:50:03 AM 42.5469 -74.3536 30° Northeast 194 223 8,100 -500 Descending Boston Center
Fri 11:50:28 AM 42.5639 -74.3317 44° Northeast 182 209 7,900 -500 Descending Boston Center
Fri 11:51:03 AM 42.5892 -74.3125 29° Northeast 196 226 7,600 -400 Descending Boston Center
Fri 11:51:28 AM 42.6083 -74.2906 40° Northeast 182 209 7,500 -492 Descending Boston Center
Fri 11:52:04 AM 42.6336 -74.2689 32° Northeast 194 223 7,100 -600 Descending Boston Center
Fri 11:52:28 AM 42.6528 -74.2469 40° Northeast 189 217 6,900 -590 Descending Boston Center
Fri 11:53:05 AM 42.6781 -74.2250 33° Northeast 192 221 6,500 -600 Descending Boston Center
Fri 11:53:28 AM 42.6953 -74.2056 40° Northeast 189 217 6,300 -556 Descending Boston Center
Fri 11:53:59 AM 42.7183 -74.1922 23° Northeast 184 212 6,000 -600 Descending Boston Center
Fri 11:54:28 AM 42.7333 -74.1700 47° Northeast 173 199 5,700 -590 Descending Boston Center
Fri 11:55:00 AM 42.7500 -74.1536 36° Northeast 158 182 5,400 -600 Descending Boston Center
Fri 11:55:28 AM 42.7692 -74.1342 37° Northeast 166 191 5,100 -590 Descending Boston Center
Fri 11:56:01 AM 42.7925 -74.1150 31° Northeast 166 191 4,800 -581 Descending Boston Center
Fri 11:57:01 AM 42.8325 -74.0794 33° Northeast 168 193 4,200 -397 Descending Boston Center
Fri 11:58:02 AM 42.8664 -74.0461 36° Northeast 150 173 4,000 -197 Descending Boston Center

Login

Don't have an account? Register now (free) for customized features, flight alerts, and more!